Time;durP1;ratioP1;P1;durP2;ratioP2;P2;SDS_P1;SDS_P2;PMS_P1;PMS_P2;Temp;Humidity;BMP_temperature;BMP_pressure;BME280_temperature;BME280_humidity;BME280_pressure;Samples;Min_cycle;Max_cycle;Signal;HPM_P1;HPM_P2
2024/03/05 00:00:12;;;;;;;18.50;15.60;;;6.20;99.90;;;;;;5035147;28;20906;-63
2024/03/05 00:02:41;;;;;;;22.03;16.37;;;6.20;99.90;;;;;;5034738;28;20506;-63
2024/03/05 00:05:13;;;;;;;21.60;15.77;;;6.20;99.90;;;;;;5035780;28;20501;-62
2024/03/05 00:07:42;;;;;;;17.53;15.40;;;6.20;99.90;;;;;;5025903;28;20595;-62
2024/03/05 00:10:11;;;;;;;21.60;16.07;;;6.20;99.90;;;;;;5034923;28;20628;-63
2024/03/05 00:12:39;;;;;;;19.57;15.60;;;6.20;99.90;;;;;;5035230;28;21021;-62
2024/03/05 00:15:08;;;;;;;18.67;15.87;;;6.20;99.90;;;;;;5025399;28;21081;-62
2024/03/05 00:17:36;;;;;;;18.63;15.40;;;6.20;99.90;;;;;;5032158;28;20499;-61
2024/03/05 00:20:11;;;;;;;19.83;15.63;;;6.10;99.90;;;;;;5029296;28;20548;-64
2024/03/05 00:22:41;;;;;;;19.50;14.87;;;6.10;99.90;;;;;;5031714;28;20509;-62
2024/03/05 00:25:11;;;;;;;21.10;16.83;;;6.10;99.90;;;;;;5032433;28;21008;-64
2024/03/05 00:27:39;;;;;;;20.30;14.87;;;6.10;99.90;;;;;;5032982;28;20881;-62
2024/03/05 00:30:09;;;;;;;17.90;14.83;;;6.10;99.90;;;;;;5031196;28;20520;-61
2024/03/05 00:32:38;;;;;;;18.03;13.90;;;6.20;99.90;;;;;;5035295;28;20474;-62
2024/03/05 00:35:07;;;;;;;18.57;15.10;;;6.10;99.90;;;;;;5034849;28;20588;-62
2024/03/05 00:37:36;;;;;;;20.03;15.90;;;6.10;99.90;;;;;;5034936;28;20565;-62
2024/03/05 00:40:08;;;;;;;18.63;14.43;;;6.10;99.90;;;;;;5036192;28;20569;-62
2024/03/05 00:42:37;;;;;;;18.80;15.57;;;6.10;99.90;;;;;;5033818;28;20471;-62
2024/03/05 00:45:06;;;;;;;17.80;13.90;;;6.00;99.90;;;;;;5032035;28;20515;-62
2024/03/05 00:47:36;;;;;;;21.50;15.90;;;6.00;99.90;;;;;;5032435;28;20474;-62
2024/03/05 00:50:05;;;;;;;17.30;15.40;;;6.00;99.90;;;;;;5029674;28;20953;-62
2024/03/05 00:52:33;;;;;;;20.53;15.10;;;6.00;99.90;;;;;;5029469;28;20474;-63
2024/03/05 00:55:02;;;;;;;20.50;14.57;;;5.90;99.90;;;;;;5032183;28;20484;-62
2024/03/05 00:57:31;;;;;;;17.77;15.23;;;6.00;99.90;;;;;;5033180;28;20513;-62
2024/03/05 00:59:59;;;;;;;21.40;16.23;;;6.00;99.90;;;;;;5030819;28;20536;-62
2024/03/05 01:02:27;;;;;;;18.40;14.40;;;6.00;99.90;;;;;;5032102;28;20475;-62
2024/03/05 01:04:55;;;;;;;20.17;15.67;;;6.00;99.90;;;;;;5026750;28;20482;-62
2024/03/05 01:07:23;;;;;;;20.77;15.67;;;6.00;99.90;;;;;;5035359;28;20470;-62
2024/03/05 01:09:51;;;;;;;19.07;14.70;;;6.00;99.90;;;;;;5029606;28;20494;-62
2024/03/05 01:12:19;;;;;;;19.63;15.60;;;6.00;99.90;;;;;;5032632;28;20900;-63
2024/03/05 01:14:49;;;;;;;20.90;14.87;;;6.00;99.90;;;;;;5031568;28;20597;-62
2024/03/05 01:17:17;;;;;;;25.77;15.97;;;6.00;99.90;;;;;;5033716;28;20472;-64
2024/03/05 01:19:46;;;;;;;20.23;14.70;;;6.00;99.90;;;;;;5028270;28;20540;-64
2024/03/05 01:22:14;;;;;;;17.10;14.37;;;5.90;99.90;;;;;;5034402;28;20494;-63
2024/03/05 01:24:42;;;;;;;18.40;14.50;;;5.90;99.90;;;;;;5019632;28;20546;-61
2024/03/05 01:27:10;;;;;;;21.93;15.23;;;5.90;99.90;;;;;;5013402;28;21050;-64
2024/03/05 01:29:41;;;;;;;18.73;14.20;;;5.90;99.90;;;;;;5013144;28;20539;-63
2024/03/05 01:32:12;;;;;;;19.80;15.03;;;5.90;99.90;;;;;;5007036;28;20471;-63
2024/03/05 01:34:43;;;;;;;20.73;14.43;;;5.80;99.90;;;;;;5010188;28;21067;-64
2024/03/05 01:37:11;;;;;;;20.07;14.17;;;5.80;99.90;;;;;;5012750;28;20471;-62
2024/03/05 01:39:39;;;;;;;17.97;14.37;;;5.80;99.90;;;;;;4998989;28;20479;-64
2024/03/05 01:42:08;;;;;;;19.60;14.00;;;5.80;99.90;;;;;;5009241;28;20468;-62
2024/03/05 01:44:36;;;;;;;19.20;14.97;;;5.80;99.90;;;;;;5008091;28;20575;-62
2024/03/05 01:47:04;;;;;;;20.23;14.57;;;5.80;99.90;;;;;;5013837;28;20563;-62
2024/03/05 01:49:35;;;;;;;22.30;15.07;;;5.80;99.90;;;;;;5016265;28;20574;-61
2024/03/05 01:52:05;;;;;;;18.73;13.30;;;5.80;99.90;;;;;;5016346;28;20478;-61
2024/03/05 01:54:33;;;;;;;18.93;15.40;;;5.80;99.90;;;;;;5012497;28;20548;-62
2024/03/05 01:57:05;;;;;;;20.90;14.60;;;5.80;99.90;;;;;;5014924;28;20476;-62
2024/03/05 01:59:33;;;;;;;16.57;14.83;;;5.80;99.90;;;;;;5015164;28;20569;-62
2024/03/05 02:02:01;;;;;;;18.10;14.17;;;5.70;99.90;;;;;;5009713;28;20499;-62
2024/03/05 02:04:31;;;;;;;20.30;14.70;;;5.70;99.90;;;;;;5011135;28;20497;-64
2024/03/05 02:07:03;;;;;;;20.70;15.13;;;5.70;99.90;;;;;;5014958;28;20485;-62
2024/03/05 02:09:32;;;;;;;21.17;15.13;;;5.80;99.90;;;;;;5011347;28;20588;-61
2024/03/05 02:12:00;;;;;;;18.40;15.00;;;5.70;99.90;;;;;;5011754;28;21640;-65
2024/03/05 02:14:32;;;;;;;19.30;14.77;;;5.70;99.90;;;;;;5012421;28;20506;-63
2024/03/05 02:17:01;;;;;;;17.83;15.13;;;5.70;99.90;;;;;;5011727;28;20997;-63
2024/03/05 02:19:29;;;;;;;22.57;16.03;;;5.70;99.90;;;;;;5012172;28;20487;-62
2024/03/05 02:22:02;;;;;;;16.10;13.63;;;5.80;99.90;;;;;;5017899;28;20475;-62
2024/03/05 02:24:30;;;;;;;19.63;14.43;;;5.70;99.90;;;;;;5014525;28;21031;-63
2024/03/05 02:27:01;;;;;;;22.67;14.87;;;5.70;99.90;;;;;;5014012;28;20507;-63
2024/03/05 02:29:30;;;;;;;23.60;14.20;;;5.70;99.90;;;;;;5014958;28;20502;-63
2024/03/05 02:31:59;;;;;;;22.07;16.07;;;5.70;99.90;;;;;;5012206;28;20570;-63
2024/03/05 02:34:27;;;;;;;19.17;15.13;;;5.70;99.90;;;;;;5015511;28;20571;-63
2024/03/05 02:36:56;;;;;;;19.17;15.20;;;5.70;99.90;;;;;;5017307;28;21058;-63
2024/03/05 02:39:27;;;;;;;22.00;14.83;;;5.70;99.90;;;;;;5016687;28;20483;-63
2024/03/05 02:41:55;;;;;;;19.73;13.90;;;5.70;99.90;;;;;;5015676;28;20908;-63
2024/03/05 02:44:23;;;;;;;19.53;15.37;;;5.70;99.90;;;;;;5017592;28;20491;-63
2024/03/05 02:46:51;;;;;;;21.00;14.50;;;5.60;99.90;;;;;;5036777;28;20467;-63
2024/03/05 02:49:19;;;;;;;19.40;14.43;;;5.60;99.90;;;;;;5035267;28;20501;-63
2024/03/05 02:51:48;;;;;;;20.20;14.27;;;5.60;99.90;;;;;;5029876;28;20477;-61
2024/03/05 02:54:16;;;;;;;17.27;13.83;;;5.60;99.90;;;;;;5026891;28;20593;-63
2024/03/05 02:56:45;;;;;;;21.00;14.83;;;5.60;99.90;;;;;;5031628;28;21104;-61
2024/03/05 02:59:14;;;;;;;17.73;14.47;;;5.60;99.90;;;;;;5030943;28;20572;-63
2024/03/05 03:01:47;;;;;;;19.70;14.10;;;5.50;99.90;;;;;;5033120;28;20471;-63
2024/03/05 03:04:15;;;;;;;17.10;15.10;;;5.60;99.90;;;;;;5036008;28;20980;-63
2024/03/05 03:06:44;;;;;;;16.63;13.73;;;5.50;99.90;;;;;;5031657;28;21040;-60
2024/03/05 03:09:12;;;;;;;19.33;15.10;;;5.50;99.90;;;;;;5030392;28;20496;-63
2024/03/05 03:11:41;;;;;;;17.50;14.60;;;5.50;99.90;;;;;;5027857;28;20963;-63
2024/03/05 03:14:11;;;;;;;23.30;15.37;;;5.40;99.90;;;;;;5033144;28;21048;-63
2024/03/05 03:16:43;;;;;;;21.50;16.03;;;5.50;99.90;;;;;;5036045;28;20475;-63
2024/03/05 03:19:12;;;;;;;21.90;14.80;;;5.50;99.90;;;;;;5034254;28;20489;-61
2024/03/05 03:21:40;;;;;;;20.67;13.90;;;5.50;99.90;;;;;;5031413;28;21049;-63
2024/03/05 03:24:12;;;;;;;19.13;14.50;;;5.50;99.90;;;;;;5035362;28;20510;-63
2024/03/05 03:26:40;;;;;;;19.10;14.63;;;5.50;99.90;;;;;;5035490;28;20478;-63
2024/03/05 03:29:13;;;;;;;18.47;14.40;;;5.50;99.90;;;;;;5031301;28;20502;-61
2024/03/05 03:31:45;;;;;;;22.80;15.40;;;5.50;99.90;;;;;;5032471;28;20520;-63
2024/03/05 03:34:16;;;;;;;19.87;14.60;;;5.50;99.90;;;;;;5033482;28;20492;-63
2024/03/05 03:36:44;;;;;;;22.70;15.33;;;5.50;99.90;;;;;;5036306;28;20482;-63
2024/03/05 03:39:12;;;;;;;16.70;13.67;;;5.50;99.90;;;;;;5033240;28;20564;-63
2024/03/05 03:41:40;;;;;;;22.23;14.97;;;5.50;99.90;;;;;;5029989;28;20545;-62
2024/03/05 03:44:09;;;;;;;19.37;16.00;;;5.50;99.90;;;;;;5025465;28;20490;-63
2024/03/05 03:46:37;;;;;;;17.13;14.60;;;5.50;99.90;;;;;;5031431;28;20537;-63
2024/03/05 03:49:06;;;;;;;17.17;13.83;;;5.50;99.90;;;;;;5030039;28;20482;-62
2024/03/05 03:51:34;;;;;;;18.43;15.13;;;5.50;99.90;;;;;;5030090;28;20581;-62
2024/03/05 03:54:04;;;;;;;18.03;14.50;;;5.50;99.90;;;;;;5030087;28;21164;-62
2024/03/05 03:56:34;;;;;;;19.63;14.03;;;5.40;99.90;;;;;;5034068;28;20471;-63
2024/03/05 03:59:02;;;;;;;17.23;14.00;;;5.40;99.90;;;;;;5035029;28;21228;-63
2024/03/05 04:01:31;;;;;;;20.50;14.50;;;5.40;99.90;;;;;;5032575;28;20535;-63
2024/03/05 04:04:00;;;;;;;17.97;13.47;;;5.40;99.90;;;;;;5030284;28;20565;-62
2024/03/05 04:06:29;;;;;;;19.00;14.63;;;5.40;99.90;;;;;;5034422;28;20558;-63
2024/03/05 04:08:58;;;;;;;18.80;14.27;;;5.40;99.90;;;;;;5030573;28;20850;-62
2024/03/05 04:11:26;;;;;;;16.93;13.83;;;5.40;99.90;;;;;;5032569;28;20526;-63
2024/03/05 04:13:54;;;;;;;17.47;14.50;;;5.40;99.90;;;;;;5033974;28;20486;-62
2024/03/05 04:16:22;;;;;;;19.30;15.03;;;5.40;99.90;;;;;;5032885;28;20524;-62
2024/03/05 04:18:51;;;;;;;21.53;15.53;;;5.40;99.90;;;;;;5032480;28;20493;-62
2024/03/05 04:21:20;;;;;;;18.87;14.20;;;5.40;99.90;;;;;;5032408;28;20544;-62
2024/03/05 04:23:48;;;;;;;18.97;14.90;;;5.40;99.90;;;;;;5031931;28;21004;-63
2024/03/05 04:26:23;;;;;;;17.63;14.10;;;5.40;99.90;;;;;;5034691;28;20925;-62
2024/03/05 04:28:52;;;;;;;20.30;15.30;;;5.40;99.90;;;;;;5034884;28;20504;-62
2024/03/05 04:31:22;;;;;;;19.10;15.17;;;5.40;99.90;;;;;;5028923;28;20498;-63
2024/03/05 04:33:58;;;;;;;18.23;14.43;;;5.40;99.90;;;;;;5029762;28;20492;-63
2024/03/05 04:36:26;;;;;;;16.77;14.63;;;5.40;99.90;;;;;;5035161;28;20548;-62
2024/03/05 04:38:55;;;;;;;18.20;13.90;;;5.40;99.90;;;;;;5033073;28;20609;-63
2024/03/05 04:41:23;;;;;;;18.77;14.20;;;5.40;99.90;;;;;;5030468;28;20458;-63
2024/03/05 04:43:51;;;;;;;17.00;14.37;;;5.40;99.90;;;;;;5028551;28;20592;-63
2024/03/05 04:46:19;;;;;;;17.30;14.83;;;5.40;99.90;;;;;;5028252;28;20481;-62
2024/03/05 04:48:48;;;;;;;18.00;14.37;;;5.30;99.90;;;;;;5032926;28;20498;-63
2024/03/05 04:51:18;;;;;;;20.97;15.47;;;5.30;99.90;;;;;;5032650;28;20494;-63
2024/03/05 04:53:46;;;;;;;17.50;14.07;;;5.30;99.90;;;;;;5031542;28;20506;-63
2024/03/05 04:56:14;;;;;;;19.60;15.50;;;5.30;99.90;;;;;;5033807;28;20971;-62
2024/03/05 04:58:42;;;;;;;18.30;15.93;;;5.30;99.90;;;;;;5034720;28;20540;-63
2024/03/05 05:01:10;;;;;;;20.00;15.03;;;5.30;99.90;;;;;;5034699;28;20470;-63
2024/03/05 05:03:38;;;;;;;18.20;14.53;;;5.30;99.90;;;;;;5035204;28;20478;-63
2024/03/05 05:06:06;;;;;;;21.20;15.60;;;5.30;99.90;;;;;;5034122;28;20549;-62
2024/03/05 05:08:36;;;;;;;19.30;15.67;;;5.30;99.90;;;;;;5033856;28;20892;-63
2024/03/05 05:11:06;;;;;;;20.70;14.93;;;5.30;99.90;;;;;;5032598;28;20525;-63
2024/03/05 05:13:34;;;;;;;20.27;16.03;;;5.30;99.90;;;;;;5029552;28;20474;-63
2024/03/05 05:16:02;;;;;;;17.93;14.90;;;5.30;99.90;;;;;;5028481;28;20520;-62
2024/03/05 05:18:30;;;;;;;23.63;15.90;;;5.30;99.90;;;;;;5033895;28;20549;-63
2024/03/05 05:20:58;;;;;;;18.97;15.47;;;5.30;99.90;;;;;;5039482;28;20502;-62
2024/03/05 05:23:26;;;;;;;19.03;16.20;;;5.30;99.90;;;;;;5037155;28;20557;-62
2024/03/05 05:25:55;;;;;;;17.90;15.20;;;5.30;99.90;;;;;;5033152;28;20478;-62
2024/03/05 05:28:23;;;;;;;19.67;16.13;;;5.30;99.90;;;;;;5032743;28;20486;-62
2024/03/05 05:30:51;;;;;;;19.53;15.20;;;5.30;99.90;;;;;;5034010;28;20981;-63
2024/03/05 05:33:19;;;;;;;21.57;15.77;;;5.30;99.90;;;;;;5033506;28;20504;-63
2024/03/05 05:35:47;;;;;;;19.70;15.43;;;5.30;99.90;;;;;;5030785;28;21582;-63
2024/03/05 05:38:15;;;;;;;19.60;16.07;;;5.30;99.90;;;;;;5031192;28;20494;-63
2024/03/05 05:40:44;;;;;;;20.37;15.27;;;5.30;99.90;;;;;;5034247;28;21075;-63
2024/03/05 05:43:13;;;;;;;21.07;14.90;;;5.30;99.90;;;;;;5035300;28;20858;-63
2024/03/05 05:45:41;;;;;;;23.73;16.27;;;5.30;99.90;;;;;;5024499;28;21076;-62
2024/03/05 05:48:23;;;;;;;18.60;14.83;;;5.30;99.90;;;;;;5007988;28;20616;-62
2024/03/05 05:50:58;;;;;;;18.93;15.37;;;5.30;99.90;;;;;;5014502;28;20474;-62
2024/03/05 05:53:26;;;;;;;20.50;14.00;;;5.30;99.90;;;;;;5013567;28;20576;-62
2024/03/05 05:55:54;;;;;;;19.07;15.83;;;5.30;99.90;;;;;;5018624;28;20771;-61
2024/03/05 05:58:25;;;;;;;19.40;16.13;;;5.30;99.90;;;;;;5016970;28;20478;-62
2024/03/05 06:00:54;;;;;;;17.40;14.33;;;5.30;99.90;;;;;;5006137;28;20477;-62
2024/03/05 06:03:22;;;;;;;19.17;15.03;;;5.30;99.90;;;;;;4999630;28;21251;-61
2024/03/05 06:05:50;;;;;;;20.00;14.70;;;5.30;99.90;;;;;;5008042;28;20924;-62
2024/03/05 06:08:19;;;;;;;19.20;15.17;;;5.30;99.90;;;;;;5009140;28;21018;-62
2024/03/05 06:10:48;;;;;;;20.40;15.27;;;5.20;99.90;;;;;;5014206;28;21066;-62
2024/03/05 06:13:16;;;;;;;18.33;15.30;;;5.20;99.90;;;;;;5012573;28;20504;-62
2024/03/05 06:15:47;;;;;;;16.73;14.90;;;5.20;99.90;;;;;;4992356;28;20479;-63
2024/03/05 06:18:15;;;;;;;16.47;13.97;;;5.20;99.90;;;;;;4993815;28;20471;-61
2024/03/05 06:20:44;;;;;;;21.90;15.27;;;5.20;99.90;;;;;;4984510;28;20482;-62
2024/03/05 06:23:12;;;;;;;15.40;13.80;;;5.30;99.90;;;;;;4993092;28;20533;-62
2024/03/05 06:25:40;;;;;;;18.57;13.93;;;5.20;99.90;;;;;;4981968;28;20599;-62
2024/03/05 06:28:09;;;;;;;16.53;14.00;;;5.20;99.90;;;;;;4963592;28;20894;-61
2024/03/05 06:30:38;;;;;;;17.00;14.90;;;5.20;99.90;;;;;;4970776;28;20487;-61
2024/03/05 06:33:08;;;;;;;17.03;14.37;;;5.30;99.90;;;;;;4985785;28;20495;-62
2024/03/05 06:35:38;;;;;;;19.73;14.70;;;5.30;99.90;;;;;;4981010;28;21403;-62
2024/03/05 06:38:08;;;;;;;18.80;14.97;;;5.30;99.90;;;;;;4980764;28;20498;-63
2024/03/05 06:40:37;;;;;;;17.20;13.60;;;5.30;99.90;;;;;;4981696;28;20495;-61
2024/03/05 06:43:12;;;;;;;18.23;13.27;;;5.30;99.90;;;;;;4987366;28;20490;-63
2024/03/05 06:45:42;;;;;;;15.53;13.73;;;5.30;99.90;;;;;;5000356;28;20749;-63
2024/03/05 06:48:12;;;;;;;20.93;13.47;;;5.30;99.90;;;;;;5026848;28;20473;-62
2024/03/05 06:50:51;;;;;;;17.03;13.63;;;5.30;99.90;;;;;;5022212;28;20475;-61
2024/03/05 06:58:53;;;;;;;19.10;13.23;;;5.30;99.90;;;;;;4983724;28;20506;-61
2024/03/05 07:01:22;;;;;;;16.10;12.37;;;5.30;99.90;;;;;;4984000;28;20476;-61
2024/03/05 07:03:51;;;;;;;15.70;14.00;;;5.30;99.90;;;;;;4987407;28;20486;-61
2024/03/05 07:06:21;;;;;;;17.20;13.47;;;5.30;99.90;;;;;;4986843;28;21019;-61
2024/03/05 07:08:51;;;;;;;16.00;12.63;;;5.30;99.90;;;;;;5000648;28;20495;-61
2024/03/05 07:11:19;;;;;;;16.47;13.50;;;5.40;99.90;;;;;;5003011;28;21002;-61
2024/03/05 07:13:49;;;;;;;15.90;13.07;;;5.40;99.90;;;;;;4999465;28;20479;-63
2024/03/05 07:16:19;;;;;;;17.23;14.13;;;5.40;99.90;;;;;;4977399;28;20526;-61
2024/03/05 07:18:52;;;;;;;18.10;13.57;;;5.40;99.90;;;;;;4996663;28;20496;-63
2024/03/05 07:21:22;;;;;;;16.37;13.37;;;5.40;99.90;;;;;;5004317;28;20474;-62
2024/03/05 07:23:51;;;;;;;16.17;12.60;;;5.40;99.90;;;;;;5006420;28;20509;-63
2024/03/05 07:26:21;;;;;;;16.20;12.43;;;5.40;99.90;;;;;;4994647;28;20888;-62
2024/03/05 07:28:49;;;;;;;13.40;12.00;;;5.40;99.90;;;;;;5002112;28;20529;-63
2024/03/05 07:31:18;;;;;;;16.70;11.97;;;5.40;99.90;;;;;;5008152;28;20533;-63
2024/03/05 07:33:48;;;;;;;15.77;12.83;;;5.50;99.90;;;;;;5004656;28;20522;-63
2024/03/05 07:36:22;;;;;;;16.50;11.80;;;5.50;99.90;;;;;;5007462;28;20480;-61
2024/03/05 07:38:50;;;;;;;14.87;12.10;;;5.50;99.90;;;;;;4999532;28;20965;-62
2024/03/05 07:41:18;;;;;;;14.57;12.00;;;5.50;99.90;;;;;;5001086;28;20475;-61
2024/03/05 07:44:02;;;;;;;17.57;11.60;;;5.50;99.90;;;;;;5017918;28;20482;-63
2024/03/05 07:46:32;;;;;;;15.63;11.33;;;5.50;99.90;;;;;;5024356;28;20475;-61
2024/03/05 07:49:00;;;;;;;15.13;11.37;;;5.60;99.90;;;;;;5018036;28;20490;-61
2024/03/05 07:51:30;;;;;;;14.30;11.87;;;5.60;99.90;;;;;;5023204;28;21069;-63
2024/03/05 07:54:12;;;;;;;13.27;11.70;;;5.60;99.90;;;;;;5010163;28;23881;-61
2024/03/05 07:56:40;;;;;;;14.47;12.00;;;5.60;99.90;;;;;;4996396;28;20484;-62
2024/03/05 07:59:08;;;;;;;14.67;12.23;;;5.70;99.90;;;;;;5005412;28;20482;-61
2024/03/05 08:01:37;;;;;;;16.23;12.93;;;5.60;99.90;;;;;;4990285;28;20478;-63
2024/03/05 08:04:05;;;;;;;13.10;11.70;;;5.70;99.90;;;;;;4980524;28;21498;-61
2024/03/05 08:06:35;;;;;;;14.83;11.23;;;5.70;99.90;;;;;;4984889;28;20548;-63
2024/03/05 08:09:03;;;;;;;17.53;11.30;;;5.70;99.90;;;;;;4981429;28;20501;-62
2024/03/05 08:11:31;;;;;;;16.37;11.23;;;5.70;99.90;;;;;;4977100;28;20483;-62
2024/03/05 08:14:03;;;;;;;12.40;11.07;;;5.70;99.90;;;;;;4979568;28;20625;-61
2024/03/05 08:16:33;;;;;;;18.10;11.23;;;5.80;99.90;;;;;;4979676;28;20618;-62
2024/03/05 08:19:03;;;;;;;13.73;10.40;;;5.80;99.90;;;;;;4981195;28;20495;-63
2024/03/05 08:21:31;;;;;;;13.53;10.10;;;5.80;99.90;;;;;;4984760;28;20471;-62
2024/03/05 08:24:02;;;;;;;13.20;10.17;;;5.90;99.90;;;;;;4977577;28;21084;-61
2024/03/05 08:26:30;;;;;;;10.67;9.50;;;5.90;99.90;;;;;;4982378;28;20875;-62
2024/03/05 08:28:58;;;;;;;11.20;9.80;;;5.90;99.90;;;;;;4976283;28;20499;-64
2024/03/05 08:31:26;;;;;;;11.97;9.73;;;5.90;99.90;;;;;;4974338;28;21248;-64
2024/03/05 08:33:54;;;;;;;11.23;9.37;;;5.90;99.90;;;;;;4984588;28;20491;-65
2024/03/05 08:36:25;;;;;;;12.97;9.87;;;5.90;99.90;;;;;;4989580;28;20479;-64
2024/03/05 08:38:53;;;;;;;14.13;9.33;;;6.00;99.90;;;;;;4986655;28;20931;-64
2024/03/05 08:41:22;;;;;;;13.03;9.67;;;6.00;99.90;;;;;;4990642;28;21222;-64
2024/03/05 08:43:50;;;;;;;12.40;9.77;;;6.00;99.90;;;;;;4984624;28;20526;-65
2024/03/05 08:46:20;;;;;;;12.43;9.73;;;6.00;99.90;;;;;;4993530;28;20471;-64
2024/03/05 08:48:48;;;;;;;12.50;10.20;;;6.00;99.90;;;;;;4983699;28;20495;-64
2024/03/05 08:51:16;;;;;;;13.83;10.20;;;6.10;99.90;;;;;;4988790;28;20467;-64
2024/03/05 08:53:44;;;;;;;10.43;9.33;;;6.10;99.90;;;;;;4987729;28;21080;-64
2024/03/05 08:56:13;;;;;;;13.60;10.13;;;6.10;99.90;;;;;;4995877;28;20486;-65
2024/03/05 08:58:43;;;;;;;13.53;10.53;;;6.20;99.90;;;;;;4986309;28;20499;-65
2024/03/05 09:01:12;;;;;;;11.47;9.57;;;6.20;99.90;;;;;;4983392;28;20601;-64
2024/03/05 09:03:41;;;;;;;12.23;10.20;;;6.30;99.90;;;;;;4989822;28;20538;-64
2024/03/05 09:06:09;;;;;;;11.93;10.20;;;6.30;99.90;;;;;;4988394;28;20471;-65
2024/03/05 09:08:39;;;;;;;13.23;10.50;;;6.40;99.90;;;;;;4989133;28;21137;-64
2024/03/05 09:11:08;;;;;;;10.40;9.33;;;6.40;99.90;;;;;;4985550;28;20492;-64
2024/03/05 09:13:36;;;;;;;10.97;9.87;;;6.50;99.90;;;;;;4987982;28;20487;-64
2024/03/05 09:16:06;;;;;;;9.77;8.70;;;6.50;99.90;;;;;;4989316;28;21083;-64
2024/03/05 09:18:34;;;;;;;11.93;10.10;;;6.60;99.90;;;;;;4994906;28;20858;-64
2024/03/05 09:21:02;;;;;;;13.10;10.73;;;6.60;99.90;;;;;;4985867;28;21221;-64
2024/03/05 09:23:30;;;;;;;12.23;10.40;;;6.60;99.90;;;;;;4989637;28;20478;-65
2024/03/05 09:25:58;;;;;;;12.40;10.60;;;6.70;99.90;;;;;;4984894;28;20484;-65
2024/03/05 09:28:26;;;;;;;11.20;9.77;;;6.70;99.90;;;;;;4987427;28;20495;-65
2024/03/05 09:30:56;;;;;;;11.37;9.80;;;6.70;99.90;;;;;;4986018;28;20467;-64
2024/03/05 09:33:26;;;;;;;14.20;10.83;;;6.80;99.90;;;;;;4986983;28;21342;-64
2024/03/05 09:35:54;;;;;;;13.87;10.80;;;6.80;99.90;;;;;;5010595;28;20485;-64
2024/03/05 09:38:22;;;;;;;12.13;10.33;;;6.80;99.90;;;;;;5008627;28;20477;-65
2024/03/05 09:40:52;;;;;;;13.53;10.30;;;6.80;99.90;;;;;;5004397;28;20466;-64
2024/03/05 09:43:22;;;;;;;11.03;9.87;;;6.90;99.90;;;;;;5007228;28;20474;-64
2024/03/05 09:45:52;;;;;;;14.00;9.80;;;6.90;99.90;;;;;;5005776;28;20505;-64
2024/03/05 09:48:22;;;;;;;10.67;9.57;;;6.90;99.90;;;;;;5004812;28;20474;-64
2024/03/05 09:50:53;;;;;;;11.10;10.00;;;7.00;99.90;;;;;;5002786;28;20474;-65
2024/03/05 09:53:21;;;;;;;13.87;10.30;;;7.10;99.90;;;;;;5006248;28;20502;-64
2024/03/05 09:55:52;;;;;;;10.03;8.93;;;7.20;99.90;;;;;;5005079;28;21025;-65
2024/03/05 09:58:34;;;;;;;16.30;10.27;;;7.20;99.90;;;;;;5006212;28;20485;-64
2024/03/05 10:01:05;;;;;;;10.90;9.63;;;7.30;99.90;;;;;;5008344;28;20471;-64
2024/03/05 10:03:35;;;;;;;15.17;9.93;;;7.30;99.90;;;;;;5004005;28;20936;-64
2024/03/05 10:06:07;;;;;;;11.00;9.63;;;7.40;99.90;;;;;;4989294;28;20668;-63
2024/03/05 10:08:35;;;;;;;14.83;10.33;;;7.40;99.90;;;;;;5006216;28;20485;-63
2024/03/05 10:11:05;;;;;;;10.43;9.33;;;7.40;99.90;;;;;;5011747;28;20601;-63
2024/03/05 10:13:35;;;;;;;12.43;9.50;;;7.40;99.90;;;;;;5009634;28;20621;-62
2024/03/05 10:16:17;;;;;;;13.13;9.53;;;7.40;99.90;;;;;;4993603;28;20486;-62
2024/03/05 10:18:46;;;;;;;11.13;8.80;;;7.50;99.90;;;;;;4994247;28;20490;-62
2024/03/05 10:21:21;;;;;;;13.13;8.37;;;7.60;99.90;;;;;;4987679;28;20471;-62
2024/03/05 10:23:57;;;;;;;11.27;8.03;;;7.60;99.90;;;;;;4993340;28;20549;-62
2024/03/05 10:26:27;;;;;;;11.33;8.53;;;7.70;99.90;;;;;;4989986;28;20471;-62
2024/03/05 10:28:58;;;;;;;11.00;7.87;;;7.70;99.90;;;;;;4993427;28;20507;-62
2024/03/05 10:31:27;;;;;;;9.53;7.93;;;7.90;99.90;;;;;;4992305;28;20475;-62
2024/03/05 10:33:58;;;;;;;11.10;8.20;;;7.90;99.90;;;;;;4992792;28;20546;-63
2024/03/05 10:36:28;;;;;;;8.83;7.97;;;8.00;99.90;;;;;;4994156;28;20605;-62
2024/03/05 10:38:57;;;;;;;11.03;8.00;;;8.10;99.90;;;;;;4995396;28;20620;-62
2024/03/05 10:41:29;;;;;;;9.17;6.93;;;8.10;99.90;;;;;;5008187;28;20586;-62
2024/03/05 10:44:15;;;;;;;10.37;7.60;;;8.20;99.90;;;;;;5014037;28;20509;-62
2024/03/05 10:46:46;;;;;;;8.43;7.40;;;8.30;99.90;;;;;;5012377;28;20494;-62
2024/03/05 10:49:17;;;;;;;10.30;6.87;;;8.40;99.90;;;;;;5017555;28;21042;-62
2024/03/05 10:51:48;;;;;;;7.63;6.83;;;8.50;99.90;;;;;;5017295;28;20467;-62
2024/03/05 10:54:17;;;;;;;9.63;8.07;;;8.50;99.90;;;;;;5011009;28;20498;-62
2024/03/05 10:56:45;;;;;;;7.63;6.93;;;8.50;99.90;;;;;;5012579;28;20559;-62
2024/03/05 10:59:40;;;;;;;10.40;6.90;;;8.50;99.90;;;;;;5015771;28;20500;-62
2024/03/05 11:02:12;;;;;;;8.60;7.57;;;8.60;99.90;;;;;;5016413;28;20541;-62
2024/03/05 11:04:43;;;;;;;8.87;6.20;;;8.60;99.90;;;;;;5012118;28;20487;-62
2024/03/05 11:07:12;;;;;;;8.97;6.80;;;8.70;99.90;;;;;;5015773;28;20907;-63
2024/03/05 11:09:44;;;;;;;8.33;6.80;;;8.80;99.90;;;;;;5014688;28;20912;-63
2024/03/05 11:12:18;;;;;;;7.37;6.43;;;8.80;99.90;;;;;;5013629;28;20544;-65
2024/03/05 11:14:48;;;;;;;9.70;6.87;;;8.90;99.90;;;;;;5011405;28;20596;-63
2024/03/05 11:17:17;;;;;;;7.57;6.47;;;9.00;99.90;;;;;;5015732;28;21157;-63
2024/03/05 11:19:46;;;;;;;10.77;7.27;;;9.00;99.90;;;;;;5016265;28;21025;-63
2024/03/05 11:22:24;;;;;;;7.07;6.37;;;9.10;99.90;;;;;;5014789;28;20472;-63
2024/03/05 11:24:56;;;;;;;8.30;7.00;;;9.10;99.90;;;;;;5012908;28;20502;-63
2024/03/05 11:27:25;;;;;;;11.03;7.03;;;9.20;99.90;;;;;;5014435;28;20467;-63
2024/03/05 11:30:05;;;;;;;7.17;6.47;;;9.40;99.90;;;;;;5016330;28;20535;-62
2024/03/05 11:32:34;;;;;;;9.87;6.90;;;9.50;99.90;;;;;;5018228;28;20463;-64
2024/03/05 11:35:03;;;;;;;7.63;7.00;;;9.60;99.90;;;;;;5015483;28;20578;-63
2024/03/05 11:37:47;;;;;;;12.23;6.63;;;9.70;99.90;;;;;;5012667;28;20475;-63
2024/03/05 11:40:17;;;;;;;7.57;6.77;;;9.80;99.90;;;;;;5013163;28;20491;-63
2024/03/05 11:42:47;;;;;;;7.03;6.33;;;10.00;99.90;;;;;;5013314;28;20530;-64
2024/03/05 11:45:42;;;;;;;8.50;6.97;;;10.10;99.90;;;;;;5026747;28;20483;-63
2024/03/05 11:48:11;;;;;;;6.67;6.03;;;10.30;99.90;;;;;;5035536;28;20524;-63
2024/03/05 11:50:40;;;;;;;7.30;6.60;;;10.50;99.90;;;;;;5029947;28;20486;-63
2024/03/05 11:53:10;;;;;;;6.90;6.20;;;10.50;99.90;;;;;;5033945;28;20901;-63
2024/03/05 11:55:39;;;;;;;7.00;6.20;;;10.60;99.90;;;;;;5012794;28;23113;-63
2024/03/05 11:58:07;;;;;;;7.40;6.30;;;10.50;99.90;;;;;;5013715;28;20478;-63
2024/03/05 12:00:35;;;;;;;6.67;6.00;;;10.60;99.90;;;;;;5005532;28;20555;-63
2024/03/05 12:03:06;;;;;;;7.90;6.80;;;10.60;99.90;;;;;;5010215;28;21257;-63
2024/03/05 12:05:34;;;;;;;6.87;6.17;;;10.60;99.90;;;;;;5007832;28;20908;-64
2024/03/05 12:08:06;;;;;;;7.47;6.87;;;10.60;99.90;;;;;;5016089;28;20707;-65
2024/03/05 12:10:39;;;;;;;6.93;5.93;;;10.60;99.90;;;;;;5011418;28;20490;-64
2024/03/05 12:13:07;;;;;;;7.10;6.30;;;10.50;99.90;;;;;;5012643;28;21346;-64
2024/03/05 12:15:36;;;;;;;7.70;6.90;;;10.50;99.90;;;;;;5010073;28;20842;-64
2024/03/05 12:18:10;;;;;;;8.07;6.57;;;10.50;99.90;;;;;;5010800;28;20555;-64
2024/03/05 12:20:40;;;;;;;7.50;6.70;;;10.60;99.90;;;;;;5007402;28;20877;-63
2024/03/05 12:23:08;;;;;;;7.50;6.80;;;10.70;99.90;;;;;;5004258;28;20532;-64
2024/03/05 12:25:37;;;;;;;7.07;6.40;;;10.70;99.90;;;;;;5009502;28;20510;-63
2024/03/05 12:28:06;;;;;;;7.77;6.97;;;10.70;99.90;;;;;;5009373;28;20497;-64
2024/03/05 12:30:36;;;;;;;7.37;6.13;;;10.50;99.90;;;;;;5011848;28;20572;-62
2024/03/05 12:33:05;;;;;;;6.47;5.87;;;10.30;99.90;;;;;;5008275;28;20905;-62
2024/03/05 12:35:34;;;;;;;8.00;7.20;;;10.20;99.90;;;;;;5011202;28;20494;-62
2024/03/05 12:38:04;;;;;;;6.60;5.90;;;10.10;99.90;;;;;;5010920;28;20479;-63
2024/03/05 12:40:32;;;;;;;7.60;6.20;;;10.10;99.90;;;;;;5010716;28;20521;-63
2024/03/05 12:43:08;;;;;;;6.23;5.40;;;11.00;99.90;;;;;;5010756;28;20699;-63
2024/03/05 12:45:37;;;;;;;6.60;6.00;;;13.70;93.60;;;;;;5030855;28;20486;-64
2024/03/05 12:48:08;;;;;;;6.43;5.93;;;16.00;71.20;;;;;;5031156;28;20559;-64
2024/03/05 12:50:39;;;;;;;7.47;6.67;;;17.00;55.90;;;;;;5033806;28;21046;-63
2024/03/05 12:53:08;;;;;;;6.80;6.00;;;16.40;52.30;;;;;;5028264;28;20771;-63
2024/03/05 12:55:37;;;;;;;6.60;6.00;;;15.20;50.80;;;;;;5007842;28;20532;-63
2024/03/05 12:58:07;;;;;;;6.50;5.90;;;14.10;54.30;;;;;;5015423;28;20490;-63